createdAt,value
2019-04-04T00:01:03.916Z,4.38
2019-04-04T00:02:20.826Z,4.38
2019-04-04T00:03:03.966Z,4.38
2019-04-04T00:05:03.872Z,4.44
2019-04-04T00:07:03.915Z,4.38
2019-04-04T00:09:03.859Z,4.44
2019-04-04T00:11:04.067Z,4.44
2019-04-04T00:13:03.865Z,4.38
2019-04-04T00:15:03.975Z,4.38
2019-04-04T00:17:03.890Z,4.38
2019-04-04T00:17:22.865Z,4.38
2019-04-04T00:19:03.872Z,4.38
2019-04-04T00:21:03.917Z,4.38
2019-04-04T00:23:04.975Z,4.31
2019-04-04T00:25:03.865Z,4.31
2019-04-04T00:27:03.912Z,4.31
2019-04-04T00:29:03.867Z,4.31
2019-04-04T00:31:03.879Z,4.31
2019-04-04T00:32:21.548Z,4.31
2019-04-04T00:33:03.886Z,4.31
2019-04-04T00:35:03.863Z,4.31
2019-04-04T00:37:04.688Z,4.31
2019-04-04T00:39:09.045Z,4.31
2019-04-04T00:41:03.897Z,4.31
2019-04-04T00:43:03.913Z,4.31
2019-04-04T00:45:03.937Z,4.38
2019-04-04T00:47:03.847Z,4.31
2019-04-04T00:47:20.852Z,4.31
2019-04-04T00:49:04.806Z,4.31
2019-04-04T00:51:07.575Z,4.31
2019-04-04T00:53:03.924Z,4.31
2019-04-04T00:55:03.860Z,4.31
2019-04-04T00:57:03.956Z,4.25
2019-04-04T00:59:03.826Z,4.25
2019-04-04T01:01:03.934Z,4.25
2019-04-04T01:02:20.833Z,4.19
2019-04-04T01:03:03.930Z,4.19
2019-04-04T01:05:03.889Z,4.19
2019-04-04T01:07:04.983Z,4.19
2019-04-04T01:09:04.901Z,4.19
2019-04-04T01:11:03.874Z,4.19
2019-04-04T01:13:03.928Z,4.19
2019-04-04T01:15:03.866Z,4.19
2019-04-04T01:17:04.657Z,4.25
2019-04-04T01:17:20.871Z,4.25
2019-04-04T01:19:03.916Z,4.31
2019-04-04T01:21:03.869Z,4.38
2019-04-04T01:23:03.926Z,4.38
2019-04-04T01:25:03.918Z,4.38
2019-04-04T01:27:04.081Z,4.38
2019-04-04T01:29:05.701Z,4.38
2019-04-04T01:31:03.882Z,4.38
2019-04-04T01:32:20.875Z,4.44
2019-04-04T01:33:03.953Z,4.44
2019-04-04T01:35:03.929Z,4.38
2019-04-04T01:37:03.884Z,4.38
2019-04-04T01:39:03.916Z,4.31
2019-04-04T01:41:04.297Z,4.25
2019-04-04T01:43:03.858Z,4.25
2019-04-04T01:45:03.904Z,4.25
2019-04-04T01:47:03.947Z,4.31
2019-04-04T01:47:20.801Z,4.31
2019-04-04T01:49:03.790Z,4.31
2019-04-04T01:51:03.861Z,4.31
2019-04-04T01:53:03.938Z,4.38
2019-04-04T01:55:04.120Z,4.31
2019-04-04T01:57:03.934Z,4.25
2019-04-04T01:59:03.939Z,4.25
2019-04-04T02:01:03.834Z,4.25
2019-04-04T02:02:20.828Z,4.25
2019-04-04T02:03:03.921Z,4.19
2019-04-04T02:05:03.879Z,4.19
2019-04-04T02:07:03.825Z,4.19
2019-04-04T02:09:03.955Z,4.19
2019-04-04T02:11:05.380Z,4.13
2019-04-04T02:13:03.927Z,4.13
2019-04-04T02:15:03.870Z,4.13
2019-04-04T02:17:03.920Z,4.13
2019-04-04T02:17:22.276Z,4.13
2019-04-04T02:19:03.916Z,4.13
2019-04-04T02:21:03.895Z,4.19
2019-04-04T02:23:03.868Z,4.25
2019-04-04T02:25:03.889Z,4.25
2019-04-04T02:27:04.858Z,4.31
2019-04-04T02:29:03.927Z,4.31
2019-04-04T02:31:03.927Z,4.31
2019-04-04T02:32:20.829Z,4.25
2019-04-04T02:33:03.926Z,4.25
2019-04-04T02:35:03.812Z,4.19
2019-04-04T02:37:03.868Z,4.19
2019-04-04T02:39:03.950Z,4.19
2019-04-04T02:41:03.917Z,4.13
2019-04-04T02:43:03.923Z,4.19
2019-04-04T02:45:06.423Z,4.19
2019-04-04T02:47:05.345Z,4.19
2019-04-04T02:47:21.630Z,4.19
2019-04-04T02:49:03.929Z,4.13
2019-04-04T02:51:06.825Z,4.13
2019-04-04T02:53:03.882Z,4.06
2019-04-04T02:55:03.849Z,4.06
2019-04-04T02:57:07.892Z,4
2019-04-04T02:59:03.865Z,4
2019-04-04T03:01:03.828Z,3.94
2019-04-04T03:02:21.039Z,3.94
2019-04-04T03:03:08.018Z,3.94
2019-04-04T03:05:03.936Z,3.94
2019-04-04T03:07:03.885Z,3.94
2019-04-04T03:09:03.887Z,3.94
2019-04-04T03:11:04.064Z,4
2019-04-04T03:13:03.957Z,4
2019-04-04T03:15:06.271Z,3.94
2019-04-04T03:17:03.878Z,3.94
2019-04-04T03:17:20.865Z,4
2019-04-04T03:19:03.972Z,3.94
2019-04-04T03:21:03.879Z,3.94
2019-04-04T03:23:03.967Z,3.94
2019-04-04T03:25:03.885Z,3.88
2019-04-04T03:27:03.950Z,3.88
2019-04-04T03:29:05.440Z,3.88
2019-04-04T03:31:04.127Z,3.88
2019-04-04T03:32:20.973Z,3.88
2019-04-04T03:33:03.873Z,3.88
2019-04-04T03:35:03.874Z,3.94
2019-04-04T03:37:06.310Z,3.94
2019-04-04T03:39:03.827Z,3.94
2019-04-04T03:41:03.826Z,3.94
2019-04-04T03:43:03.926Z,3.88
2019-04-04T03:45:03.834Z,3.88
2019-04-04T03:47:03.872Z,3.81
2019-04-04T03:47:20.943Z,3.81
2019-04-04T03:49:03.949Z,3.81
2019-04-04T03:51:04.939Z,3.81
2019-04-04T03:53:03.915Z,3.81
2019-04-04T03:55:03.924Z,3.81
2019-04-04T03:57:04.822Z,3.81
2019-04-04T03:59:03.948Z,3.81
2019-04-04T04:01:03.946Z,3.81
2019-04-04T04:02:20.836Z,3.81
2019-04-04T04:03:03.870Z,3.81
2019-04-04T04:05:03.954Z,3.81
2019-04-04T04:07:03.892Z,3.81
2019-04-04T04:09:03.946Z,3.81
2019-04-04T04:11:05.734Z,3.81
2019-04-04T04:13:03.937Z,3.81
2019-04-04T04:15:03.835Z,3.81
2019-04-04T04:17:03.879Z,3.81
2019-04-04T04:17:20.791Z,3.88
2019-04-04T04:19:03.875Z,3.88
2019-04-04T04:21:03.908Z,3.88
2019-04-04T04:23:03.929Z,3.88
2019-04-04T04:25:03.981Z,3.88
2019-04-04T04:27:03.884Z,3.88
2019-04-04T04:29:03.867Z,3.88
2019-04-04T04:31:04.770Z,3.88
2019-04-04T04:32:21.727Z,3.88
2019-04-04T04:33:03.931Z,3.88
2019-04-04T04:35:07.355Z,3.81
2019-04-04T04:37:03.871Z,3.88
2019-04-04T04:39:04.805Z,3.81
2019-04-04T04:41:03.837Z,3.81
2019-04-04T04:43:03.896Z,3.81
2019-04-04T04:45:03.916Z,3.81
2019-04-04T04:47:03.819Z,3.81
2019-04-04T04:47:23.775Z,3.81
2019-04-04T04:49:04.235Z,3.81
2019-04-04T04:51:03.826Z,3.75
2019-04-04T04:53:03.825Z,3.75
2019-04-04T04:55:03.927Z,3.81
2019-04-04T04:57:04.947Z,3.81
2019-04-04T04:59:03.932Z,3.81
2019-04-04T05:01:03.838Z,3.81
2019-04-04T05:02:22.325Z,3.81
2019-04-04T05:03:04.085Z,3.81
2019-04-04T05:05:03.876Z,3.81
2019-04-04T05:07:06.953Z,3.81
2019-04-04T05:09:03.945Z,3.81
2019-04-04T05:11:03.931Z,3.81
2019-04-04T05:13:06.673Z,3.81
2019-04-04T05:15:03.827Z,3.81
2019-04-04T05:17:03.900Z,3.81
2019-04-04T05:17:20.740Z,3.81
2019-04-04T05:19:03.905Z,3.81
2019-04-04T05:21:03.834Z,3.81
2019-04-04T05:23:03.923Z,3.81
2019-04-04T05:25:08.190Z,3.81
2019-04-04T05:27:03.914Z,3.81
2019-04-04T05:29:03.831Z,3.88
2019-04-04T05:31:03.827Z,3.88
2019-04-04T05:32:21.676Z,3.88
2019-04-04T05:33:03.943Z,3.88
2019-04-04T05:35:03.870Z,3.81
2019-04-04T05:37:05.036Z,3.88
2019-04-04T05:39:03.895Z,3.88
2019-04-04T05:41:03.927Z,3.88
2019-04-04T05:43:04.083Z,3.88
2019-04-04T05:45:03.834Z,3.94
2019-04-04T05:47:03.923Z,4
2019-04-04T05:47:22.853Z,3.94
2019-04-04T05:49:07.669Z,4
2019-04-04T05:51:03.912Z,4
2019-04-04T05:53:04.149Z,4
2019-04-04T05:55:03.874Z,4
2019-04-04T05:57:03.926Z,4.06
2019-04-04T05:59:03.872Z,4.06
2019-04-04T06:01:03.879Z,4.06
2019-04-04T06:02:20.954Z,4.13
2019-04-04T06:03:03.926Z,4.13
2019-04-04T06:05:03.858Z,4.13
2019-04-04T06:07:04.249Z,4.19
2019-04-04T06:09:03.883Z,4.19
2019-04-04T06:11:03.851Z,4.25
2019-04-04T06:13:03.865Z,4.31
2019-04-04T06:15:03.902Z,4.38
2019-04-04T06:17:05.067Z,4.44
2019-04-04T06:17:20.829Z,4.44
2019-04-04T06:19:04.775Z,4.5
2019-04-04T06:21:03.829Z,4.5
2019-04-04T06:23:03.916Z,4.5
2019-04-04T06:25:03.911Z,4.5
2019-04-04T06:27:04.839Z,4.56
2019-04-04T06:29:05.610Z,4.56
2019-04-04T06:31:03.933Z,4.56
2019-04-04T06:32:20.826Z,4.56
2019-04-04T06:33:04.693Z,4.63
2019-04-04T06:35:03.867Z,4.69
2019-04-04T06:37:03.865Z,4.75
2019-04-04T06:39:04.814Z,4.81
2019-04-04T06:41:03.821Z,4.81
2019-04-04T06:43:04.131Z,4.81
2019-04-04T06:45:03.871Z,4.81
2019-04-04T06:47:03.892Z,4.81
2019-04-04T06:47:20.930Z,4.81
2019-04-04T06:49:04.212Z,4.81
2019-04-04T06:51:03.923Z,4.94
2019-04-04T06:53:03.921Z,5.06
2019-04-04T06:55:03.874Z,5.06
2019-04-04T06:57:04.735Z,5.13
2019-04-04T06:59:03.932Z,5.13
2019-04-04T07:01:04.877Z,5.13
2019-04-04T07:02:21.921Z,5.19
2019-04-04T07:03:03.886Z,5.19
2019-04-04T07:05:04.091Z,5.19
2019-04-04T07:07:03.889Z,5.19
2019-04-04T07:09:05.751Z,5.19
2019-04-04T07:11:06.856Z,5.25
2019-04-04T07:13:14.726Z,5.38
2019-04-04T07:15:03.872Z,5.5
2019-04-04T07:17:04.036Z,5.56
2019-04-04T07:17:20.927Z,5.63
2019-04-04T07:19:03.889Z,5.63
2019-04-04T07:21:03.875Z,5.63
2019-04-04T07:23:03.821Z,5.69
2019-04-04T07:25:06.473Z,5.63
2019-04-04T07:27:03.838Z,5.5
2019-04-04T07:29:03.872Z,5.5
2019-04-04T07:31:03.897Z,5.5
2019-04-04T07:32:20.812Z,5.56
2019-04-04T07:33:04.037Z,5.63
2019-04-04T07:35:03.870Z,5.75
2019-04-04T07:37:03.899Z,5.88
2019-04-04T07:39:03.870Z,5.94
2019-04-04T07:41:03.862Z,6
2019-04-04T07:43:03.864Z,6
2019-04-04T07:45:03.883Z,5.94
2019-04-04T07:47:03.910Z,5.88
2019-04-04T07:47:20.890Z,5.94
2019-04-04T07:49:03.920Z,5.88
2019-04-04T07:51:03.882Z,5.88
2019-04-04T07:53:04.992Z,5.94
2019-04-04T07:55:03.942Z,6.06
2019-04-04T07:57:03.867Z,6.19
2019-04-04T07:59:03.833Z,6.38
2019-04-04T08:01:03.826Z,6.5
2019-04-04T08:02:21.021Z,6.63
2019-04-04T08:03:03.914Z,6.69
2019-04-04T08:05:03.862Z,6.69
2019-04-04T08:07:04.112Z,6.75
2019-04-04T08:09:03.937Z,6.81
2019-04-04T08:11:03.965Z,6.81
2019-04-04T08:13:03.908Z,6.88
2019-04-04T08:15:03.930Z,6.88
2019-04-04T08:17:03.854Z,7
2019-04-04T08:17:20.937Z,7
2019-04-04T08:19:03.870Z,6.94
2019-04-04T08:21:05.680Z,7.06
2019-04-04T08:23:03.844Z,7.19
2019-04-04T08:25:03.863Z,7.25
2019-04-04T08:27:04.044Z,7.31
2019-04-04T08:29:03.878Z,7.31
2019-04-04T08:31:03.877Z,7.44
2019-04-04T08:32:20.911Z,7.56
2019-04-04T08:33:03.882Z,7.56
2019-04-04T08:35:03.876Z,7.56
2019-04-04T08:37:03.864Z,7.5
2019-04-04T08:39:03.957Z,7.5
2019-04-04T08:41:03.810Z,7.5
2019-04-04T08:43:03.826Z,7.44
2019-04-04T08:45:03.923Z,7.38
2019-04-04T08:47:03.932Z,7.25
2019-04-04T08:47:20.807Z,7.31
2019-04-04T08:49:03.881Z,7.13
2019-04-04T08:51:03.868Z,7
2019-04-04T08:53:03.921Z,6.94
2019-04-04T08:55:03.876Z,6.94
2019-04-04T08:57:03.854Z,6.94
2019-04-04T08:59:04.793Z,7.06
2019-04-04T09:01:03.911Z,7.13
2019-04-04T09:02:20.985Z,7.19
2019-04-04T09:03:03.932Z,7.19
2019-04-04T09:05:11.564Z,7.19
2019-04-04T09:07:03.819Z,7.25
2019-04-04T09:09:03.993Z,7.31
2019-04-04T09:11:03.887Z,7.38
2019-04-04T09:13:03.994Z,7.44
2019-04-04T09:15:03.861Z,7.5
2019-04-04T09:17:04.033Z,7.31
2019-04-04T09:17:20.984Z,7.25
2019-04-04T09:19:03.884Z,7.19
2019-04-04T09:21:03.871Z,7.31
2019-04-04T09:23:03.926Z,7.38
2019-04-04T09:25:04.120Z,7.44
2019-04-04T09:27:03.872Z,7.5
2019-04-04T09:29:04.787Z,7.5
2019-04-04T09:31:03.865Z,7.5
2019-04-04T09:32:20.827Z,7.63
2019-04-04T09:33:03.825Z,7.75
2019-04-04T09:35:03.892Z,8
2019-04-04T09:37:03.874Z,8.06
2019-04-04T09:39:03.871Z,8.19
2019-04-04T09:41:03.869Z,8.13
2019-04-04T09:43:03.883Z,8.13
2019-04-04T09:45:04.918Z,8
2019-04-04T09:47:05.458Z,7.88
2019-04-04T09:47:20.798Z,7.94
2019-04-04T09:49:03.879Z,8.13
2019-04-04T09:51:04.920Z,8.25
2019-04-04T09:53:03.860Z,8.5
2019-04-04T09:55:04.111Z,8.75
2019-04-04T09:57:03.940Z,8.88
2019-04-04T09:59:03.927Z,9.06
2019-04-04T10:01:06.441Z,9.19
2019-04-04T10:02:20.953Z,9.19
2019-04-04T10:03:03.874Z,9.13
2019-04-04T10:05:05.927Z,8.75
2019-04-04T10:07:03.900Z,8.81
2019-04-04T10:09:14.936Z,8.88
2019-04-04T10:11:03.887Z,8.94
2019-04-04T10:13:03.869Z,9.31
2019-04-04T10:15:03.823Z,9.38
2019-04-04T10:17:03.924Z,9.44
2019-04-04T10:17:20.801Z,9.44
2019-04-04T10:19:03.882Z,9.13
2019-04-04T10:21:11.462Z,9.13
2019-04-04T10:23:03.837Z,9.13
2019-04-04T10:25:03.877Z,8.75
2019-04-04T10:27:03.929Z,9.13
2019-04-04T10:29:03.927Z,9.19
2019-04-04T10:31:03.943Z,9.31
2019-04-04T10:32:20.953Z,9.25
2019-04-04T10:33:03.988Z,9.13
2019-04-04T10:35:03.874Z,9.25
2019-04-04T10:37:03.912Z,9.31
2019-04-04T10:39:03.923Z,9.19
2019-04-04T10:41:03.883Z,9.31
2019-04-04T10:43:03.883Z,9.44
2019-04-04T10:45:03.899Z,9.13
2019-04-04T10:47:03.908Z,8.44
2019-04-04T10:47:20.809Z,8.38
2019-04-04T10:49:03.932Z,8.25
2019-04-04T10:51:03.851Z,8.38
2019-04-04T10:53:03.931Z,8.38
2019-04-04T10:55:03.904Z,8.44
2019-04-04T10:57:03.946Z,8.63
2019-04-04T10:59:03.840Z,8.63
2019-04-04T11:01:03.933Z,8.44
2019-04-04T11:02:20.902Z,8.44
2019-04-04T11:03:03.880Z,8.31
2019-04-04T11:05:04.787Z,8.13
2019-04-04T11:07:03.939Z,8.25
2019-04-04T11:09:03.932Z,8.13
2019-04-04T11:11:03.891Z,8.13
2019-04-04T11:13:03.875Z,8.44
2019-04-04T11:15:03.818Z,8.44
2019-04-04T11:17:03.878Z,8.56
2019-04-04T11:17:20.785Z,8.56
2019-04-04T11:19:03.934Z,8.56
2019-04-04T11:21:04.771Z,8.56
2019-04-04T11:23:03.940Z,8.63
2019-04-04T11:25:04.290Z,8.69
2019-04-04T11:27:03.962Z,8.88
2019-04-04T11:29:03.827Z,9.06
2019-04-04T11:31:03.861Z,9.31
2019-04-04T11:32:20.738Z,9.38
2019-04-04T11:33:03.911Z,9.25
2019-04-04T11:35:04.016Z,9
2019-04-04T11:37:03.869Z,9.06
2019-04-04T11:39:03.941Z,9.19
2019-04-04T11:41:03.907Z,9.19
2019-04-04T11:43:03.899Z,9.25
2019-04-04T11:45:05.712Z,9.19
2019-04-04T11:47:03.922Z,9.13
2019-04-04T11:47:20.839Z,9.19
2019-04-04T11:49:03.889Z,9.25
2019-04-04T11:51:03.876Z,9.19
2019-04-04T11:53:03.888Z,9.25
2019-04-04T11:55:13.936Z,9.19
2019-04-04T11:57:03.869Z,9.19
2019-04-04T11:59:04.831Z,9.06
2019-04-04T12:01:04.037Z,9.06
2019-04-04T12:02:20.828Z,9.06
2019-04-04T12:03:13.965Z,9.06
2019-04-04T12:05:03.907Z,9.19
2019-04-04T12:07:03.916Z,9.38
2019-04-04T12:09:04.005Z,9.38
2019-04-04T12:11:03.865Z,9.44
2019-04-04T12:13:03.835Z,9.63
2019-04-04T12:15:04.021Z,9.69
2019-04-04T12:17:04.294Z,10
2019-04-04T12:17:20.844Z,10.06
2019-04-04T12:19:03.857Z,9.88
2019-04-04T12:21:03.967Z,9.81
2019-04-04T12:23:03.882Z,9.75
2019-04-04T12:25:03.987Z,9.5
2019-04-04T12:27:04.023Z,9.31
2019-04-04T12:29:04.002Z,9.06
2019-04-04T12:31:03.840Z,9.44
2019-04-04T12:32:20.990Z,9.69
2019-04-04T12:33:03.864Z,9.75
2019-04-04T12:35:03.924Z,9.94
2019-04-04T12:37:04.010Z,10.31
2019-04-04T12:39:04.847Z,10.19
2019-04-04T12:41:03.877Z,9.88
2019-04-04T12:43:03.820Z,10.38
2019-04-04T12:45:05.293Z,10.44
2019-04-04T12:47:03.925Z,10.25
2019-04-04T12:47:20.848Z,10.13
2019-04-04T12:49:03.871Z,10.19
2019-04-04T12:51:04.852Z,10.38
2019-04-04T12:53:03.919Z,10.38
2019-04-04T12:55:04.829Z,10.31
2019-04-04T12:57:03.931Z,10.19
2019-04-04T12:59:03.873Z,10.06
2019-04-04T13:01:03.900Z,10
2019-04-04T13:02:20.910Z,10.06
2019-04-04T13:03:03.954Z,10.13
2019-04-04T13:05:03.866Z,10.06
2019-04-04T13:07:03.978Z,10
2019-04-04T13:09:03.919Z,9.88
2019-04-04T13:11:03.932Z,9.94
2019-04-04T13:13:03.874Z,9.69
2019-04-04T13:15:03.891Z,9.69
2019-04-04T13:17:04.780Z,9.69
2019-04-04T13:17:20.807Z,9.69
2019-04-04T13:19:04.833Z,9.75
2019-04-04T13:21:04.797Z,9.94
2019-04-04T13:23:03.911Z,9.94
2019-04-04T13:25:03.922Z,9.75
2019-04-04T13:27:03.929Z,9.88
2019-04-04T13:29:03.923Z,9.88
2019-04-04T13:31:03.859Z,9.94
2019-04-04T13:32:20.831Z,9.94
2019-04-04T13:33:04.782Z,10.06
2019-04-04T13:35:05.614Z,10.06
2019-04-04T13:37:03.924Z,9.94
2019-04-04T13:39:04.781Z,10
2019-04-04T13:41:03.880Z,10.25
2019-04-04T13:43:03.867Z,10.06
2019-04-04T13:45:03.930Z,10
2019-04-04T13:47:03.940Z,9.88
2019-04-04T13:47:20.903Z,9.88
2019-04-04T13:49:04.868Z,9.88
2019-04-04T13:51:03.881Z,9.69
2019-04-04T13:53:03.885Z,9.63
2019-04-04T13:55:03.925Z,9.56
2019-04-04T13:57:04.754Z,9.69
2019-04-04T13:59:05.830Z,9.63
2019-04-04T14:01:03.839Z,9.44
2019-04-04T14:02:20.908Z,9.38
2019-04-04T14:03:03.875Z,9.44
2019-04-04T14:05:09.474Z,9.38
2019-04-04T14:07:03.864Z,9.5
2019-04-04T14:09:04.038Z,9.38
2019-04-04T14:11:04.768Z,9.5
2019-04-04T14:13:03.834Z,9.44
2019-04-04T14:15:04.311Z,9.56
2019-04-04T14:17:03.945Z,9.69
2019-04-04T14:17:21.299Z,9.69
2019-04-04T14:19:03.912Z,9.56
2019-04-04T14:21:04.241Z,9.63
2019-04-04T14:23:03.867Z,9.56
2019-04-04T14:25:03.873Z,9.5
2019-04-04T14:27:03.917Z,9.44
2019-04-04T14:29:04.840Z,9.44
2019-04-04T14:31:03.870Z,9.5
2019-04-04T14:32:21.076Z,9.44
2019-04-04T14:33:03.912Z,9.31
2019-04-04T14:35:03.875Z,9.44
2019-04-04T14:37:03.922Z,9.56
2019-04-04T14:39:03.885Z,9.63
2019-04-04T14:41:10.860Z,9.88
2019-04-04T14:43:03.819Z,9.75
2019-04-04T14:45:06.374Z,9.81
2019-04-04T14:47:04.819Z,10
2019-04-04T14:47:20.993Z,10
2019-04-04T14:49:03.894Z,10
2019-04-04T14:51:03.866Z,10.13
2019-04-04T14:53:03.824Z,9.88
2019-04-04T14:55:04.000Z,9.94
2019-04-04T14:57:04.009Z,10
2019-04-04T14:59:03.875Z,10.06
2019-04-04T15:01:03.865Z,10.38
2019-04-04T15:02:20.910Z,10.44
2019-04-04T15:03:03.902Z,10.5
2019-04-04T15:05:03.978Z,10.38
2019-04-04T15:07:03.870Z,10.38
2019-04-04T15:09:03.920Z,10.5
2019-04-04T15:11:03.901Z,10.5
2019-04-04T15:13:03.897Z,10.75
2019-04-04T15:15:03.869Z,10.75
2019-04-04T15:17:03.899Z,10.69
2019-04-04T15:17:20.805Z,10.75
2019-04-04T15:19:04.834Z,10.88
2019-04-04T15:21:03.929Z,10.75
2019-04-04T15:23:03.874Z,10.75
2019-04-04T15:25:03.880Z,10.63
2019-04-04T15:27:03.964Z,10.56
2019-04-04T15:29:03.855Z,10.5
2019-04-04T15:31:03.898Z,10.5
2019-04-04T15:32:20.978Z,10.56
2019-04-04T15:33:03.914Z,10.63
2019-04-04T15:35:03.919Z,10.63
2019-04-04T15:37:03.936Z,10.75
2019-04-04T15:39:03.815Z,11.31
2019-04-04T15:41:04.756Z,11.69
2019-04-04T15:43:03.892Z,11.75
2019-04-04T15:45:03.982Z,12
2019-04-04T15:47:03.925Z,12.19
2019-04-04T15:47:20.832Z,12.13
2019-04-04T15:49:03.938Z,12
2019-04-04T15:51:03.919Z,11.63
2019-04-04T15:53:04.014Z,11.5
2019-04-04T15:55:03.922Z,11.5
2019-04-04T15:57:03.915Z,11.81
2019-04-04T15:59:03.936Z,11.88
2019-04-04T16:01:03.884Z,12.06
2019-04-04T16:02:20.969Z,12.13
2019-04-04T16:03:03.877Z,12.06
2019-04-04T16:05:03.875Z,12.19
2019-04-04T16:07:03.926Z,11.88
2019-04-04T16:09:03.827Z,12.38
2019-04-04T16:11:03.925Z,12.56
2019-04-04T16:13:03.875Z,12.81
2019-04-04T16:15:03.871Z,13.06
2019-04-04T16:17:03.880Z,12.44
2019-04-04T16:17:20.807Z,12.44
2019-04-04T16:19:03.873Z,12.25
2019-04-04T16:21:03.876Z,12.19
2019-04-04T16:23:03.950Z,12.38
2019-04-04T16:25:03.882Z,12.31
2019-04-04T16:27:03.833Z,11.94
2019-04-04T16:29:03.887Z,11.38
2019-04-04T16:31:03.934Z,11.19
2019-04-04T16:32:20.821Z,11.06
2019-04-04T16:33:03.901Z,11.13
2019-04-04T16:35:03.887Z,11.19
2019-04-04T16:37:03.931Z,11.56
2019-04-04T16:39:03.927Z,11.69
2019-04-04T16:41:03.861Z,11.31
2019-04-04T16:43:03.959Z,11.13
2019-04-04T16:45:03.938Z,10.81
2019-04-04T16:47:03.931Z,10.75
2019-04-04T16:47:22.602Z,10.81
2019-04-04T16:49:03.829Z,10.75
2019-04-04T16:51:03.871Z,10.88
2019-04-04T16:53:13.888Z,11
2019-04-04T16:55:03.938Z,11.06
2019-04-04T16:57:03.905Z,10.94
2019-04-04T16:59:03.875Z,10.81
2019-04-04T17:01:03.876Z,10.75
2019-04-04T17:02:20.849Z,10.75
2019-04-04T17:03:03.919Z,10.81
2019-04-04T17:05:03.988Z,10.88
2019-04-04T17:07:03.927Z,10.81
2019-04-04T17:09:03.868Z,10.88
2019-04-04T17:11:03.935Z,10.88
2019-04-04T17:13:03.965Z,10.94
2019-04-04T17:15:03.876Z,11.13
2019-04-04T17:17:03.994Z,11
2019-04-04T17:17:20.807Z,11
2019-04-04T17:19:03.879Z,10.81
2019-04-04T17:21:03.844Z,10.63
2019-04-04T17:23:03.850Z,10.25
2019-04-04T17:25:04.149Z,9.94
2019-04-04T17:27:03.873Z,9.81
2019-04-04T17:29:03.990Z,9.63
2019-04-04T17:31:06.578Z,9.56
2019-04-04T17:32:21.342Z,9.44
2019-04-04T17:33:04.354Z,9.38
2019-04-04T17:35:04.173Z,9.38
2019-04-04T17:37:03.879Z,9
2019-04-04T17:39:04.007Z,9
2019-04-04T17:41:04.749Z,8.94
2019-04-04T17:43:03.928Z,8.94
2019-04-04T17:45:03.872Z,8.75
2019-04-04T17:47:04.361Z,8.56
2019-04-04T17:47:21.261Z,8.56
2019-04-04T17:49:04.299Z,8.5
2019-04-04T17:51:04.159Z,8.38
2019-04-04T17:53:04.186Z,8.25
2019-04-04T17:55:03.916Z,8.19
2019-04-04T17:57:04.181Z,8.06
2019-04-04T17:59:03.869Z,7.94
2019-04-04T18:01:04.830Z,7.88
2019-04-04T18:02:20.895Z,7.88
2019-04-04T18:03:03.924Z,7.94
2019-04-04T18:05:03.873Z,7.81
2019-04-04T18:07:03.915Z,7.81
2019-04-04T18:09:03.917Z,7.81
2019-04-04T18:11:03.848Z,7.81
2019-04-04T18:13:03.930Z,7.69
2019-04-04T18:15:03.886Z,7.69
2019-04-04T18:17:03.874Z,7.69
2019-04-04T18:17:20.746Z,7.63
2019-04-04T18:19:03.950Z,7.69
2019-04-04T18:21:03.879Z,7.5
2019-04-04T18:23:03.889Z,7.44
2019-04-04T18:25:04.780Z,7.38
2019-04-04T18:27:03.876Z,7.38
2019-04-04T18:29:03.847Z,7.25
2019-04-04T18:31:03.834Z,7.31
2019-04-04T18:32:20.963Z,7.25
2019-04-04T18:33:03.883Z,7.25
2019-04-04T18:35:03.824Z,7.31
2019-04-04T18:37:03.964Z,7.25
2019-04-04T18:39:03.910Z,7.19
2019-04-04T18:41:03.891Z,7.19
2019-04-04T18:43:03.908Z,7.19
2019-04-04T18:45:03.871Z,7.13
2019-04-04T18:47:04.754Z,7.19
2019-04-04T18:47:20.802Z,7.19
2019-04-04T18:49:04.044Z,7.13
2019-04-04T18:51:03.927Z,7.13
2019-04-04T18:53:03.909Z,7.06
2019-04-04T18:55:03.931Z,7
2019-04-04T18:57:03.949Z,6.94
2019-04-04T18:59:03.917Z,7
2019-04-04T19:01:03.874Z,6.94
2019-04-04T19:02:20.943Z,6.94
2019-04-04T19:03:03.876Z,6.88
2019-04-04T19:05:03.950Z,6.88
2019-04-04T19:07:03.887Z,6.81
2019-04-04T19:09:14.214Z,6.81
2019-04-04T19:11:03.964Z,6.81
2019-04-04T19:13:05.413Z,6.81
2019-04-04T19:15:03.947Z,6.81
2019-04-04T19:17:03.925Z,6.81
2019-04-04T19:17:20.932Z,6.81
2019-04-04T19:19:03.868Z,6.75
2019-04-04T19:21:03.918Z,6.75
2019-04-04T19:23:03.926Z,6.69
2019-04-04T19:25:04.752Z,6.69
2019-04-04T19:27:03.827Z,6.63
2019-04-04T19:29:03.871Z,6.63
2019-04-04T19:31:03.879Z,6.69
2019-04-04T19:32:20.817Z,6.75
2019-04-04T19:33:03.835Z,6.69
2019-04-04T19:35:03.839Z,6.63
2019-04-04T19:37:03.890Z,6.63
2019-04-04T19:39:03.988Z,6.63
2019-04-04T19:41:03.878Z,6.56
2019-04-04T19:43:03.892Z,6.56
2019-04-04T19:45:03.913Z,6.56
2019-04-04T19:47:03.907Z,6.5
2019-04-04T19:47:20.901Z,6.5
2019-04-04T19:49:03.827Z,6.5
2019-04-04T19:51:03.913Z,6.44
2019-04-04T19:53:03.888Z,6.44
2019-04-04T19:55:03.928Z,6.44
2019-04-04T19:57:03.928Z,6.44
2019-04-04T19:59:03.940Z,6.38
2019-04-04T20:01:03.878Z,6.44
2019-04-04T20:02:20.914Z,6.5
2019-04-04T20:03:03.909Z,6.44
2019-04-04T20:05:05.681Z,6.38
2019-04-04T20:07:08.899Z,6.38
2019-04-04T20:09:03.883Z,6.44
2019-04-04T20:11:03.980Z,6.38
2019-04-04T20:13:03.915Z,6.31
2019-04-04T20:15:03.816Z,6.31
2019-04-04T20:17:04.012Z,6.31
2019-04-04T20:17:20.804Z,6.31
2019-04-04T20:19:03.873Z,6.31
2019-04-04T20:21:04.065Z,6.19
2019-04-04T20:23:03.946Z,6.19
2019-04-04T20:25:03.871Z,6.19
2019-04-04T20:27:03.840Z,6.13
2019-04-04T20:29:04.761Z,6.13
2019-04-04T20:31:03.819Z,6.13
2019-04-04T20:32:20.970Z,6.13
2019-04-04T20:33:03.949Z,6.13
2019-04-04T20:35:03.879Z,6.06
2019-04-04T20:37:03.960Z,6.06
2019-04-04T20:39:04.026Z,6.06
2019-04-04T20:41:03.925Z,6
2019-04-04T20:43:04.146Z,5.94
2019-04-04T20:45:04.033Z,5.94
2019-04-04T20:47:03.919Z,5.94
2019-04-04T20:47:20.919Z,5.94
2019-04-04T20:49:03.879Z,5.88
2019-04-04T20:51:03.917Z,6
2019-04-04T20:53:03.936Z,5.88
2019-04-04T20:55:03.831Z,5.88
2019-04-04T20:57:03.868Z,5.81
2019-04-04T20:59:03.899Z,5.75
2019-04-04T21:01:03.939Z,5.88
2019-04-04T21:02:20.813Z,5.81
2019-04-04T21:03:03.872Z,5.75
2019-04-04T21:05:03.930Z,5.69
2019-04-04T21:07:03.952Z,5.69
2019-04-04T21:09:03.926Z,5.69
2019-04-04T21:11:03.877Z,5.63
2019-04-04T21:13:03.897Z,5.56
2019-04-04T21:15:03.866Z,5.56
2019-04-04T21:17:03.926Z,5.63
2019-04-04T21:17:20.799Z,5.63
2019-04-04T21:19:03.874Z,5.56
2019-04-04T21:21:03.932Z,5.5
2019-04-04T21:23:04.803Z,5.44
2019-04-04T21:25:03.959Z,5.44
2019-04-04T21:27:04.048Z,5.44
2019-04-04T21:29:03.857Z,5.38
2019-04-04T21:31:03.916Z,5.38
2019-04-04T21:32:20.754Z,5.31
2019-04-04T21:33:03.917Z,5.31
2019-04-04T21:35:03.885Z,5.31
2019-04-04T21:37:04.814Z,5.25
2019-04-04T21:39:03.876Z,5.25
2019-04-04T21:41:03.878Z,5.19
2019-04-04T21:43:04.884Z,5.13
2019-04-04T21:45:03.875Z,5.13
2019-04-04T21:47:03.860Z,5.13
2019-04-04T21:47:21.762Z,5.13
2019-04-04T21:49:03.920Z,5.13
2019-04-04T21:51:03.879Z,5.19
2019-04-04T21:53:03.881Z,5.13
2019-04-04T21:55:03.887Z,5.13
2019-04-04T21:57:03.884Z,5.06
2019-04-04T21:59:03.889Z,5.06
2019-04-04T22:01:03.853Z,5
2019-04-04T22:02:20.828Z,4.94
2019-04-04T22:03:03.884Z,4.94
2019-04-04T22:05:03.967Z,4.81
2019-04-04T22:07:08.911Z,4.88
2019-04-04T22:09:03.856Z,4.81
2019-04-04T22:11:03.837Z,4.81
2019-04-04T22:13:04.849Z,4.75
2019-04-04T22:15:03.871Z,4.63
2019-04-04T22:17:03.905Z,4.63
2019-04-04T22:17:20.959Z,4.63
2019-04-04T22:19:03.862Z,4.69
2019-04-04T22:21:03.977Z,4.69
2019-04-04T22:23:03.885Z,4.69
2019-04-04T22:25:03.905Z,4.69
2019-04-04T22:27:03.952Z,4.69
2019-04-04T22:29:04.041Z,4.75
2019-04-04T22:31:03.894Z,4.75
2019-04-04T22:32:20.895Z,4.75
2019-04-04T22:33:03.878Z,4.81
2019-04-04T22:35:03.924Z,4.75
2019-04-04T22:37:03.890Z,4.75
2019-04-04T22:39:03.887Z,4.75
2019-04-04T22:41:05.826Z,4.75
2019-04-04T22:43:03.949Z,4.56
2019-04-04T22:45:03.877Z,4.56
2019-04-04T22:47:03.936Z,4.5
2019-04-04T22:47:21.658Z,4.56
2019-04-04T22:49:03.894Z,4.5
2019-04-04T22:51:03.863Z,4.44
2019-04-04T22:53:03.910Z,4.5
2019-04-04T22:55:03.837Z,4.44
2019-04-04T22:57:03.953Z,4.44
2019-04-04T22:59:03.919Z,4.44
2019-04-04T23:01:03.961Z,4.44
2019-04-04T23:02:20.814Z,4.5
2019-04-04T23:03:03.904Z,4.44
2019-04-04T23:05:04.835Z,4.44
2019-04-04T23:07:03.955Z,4.44
2019-04-04T23:09:03.922Z,4.38
2019-04-04T23:11:03.884Z,4.38
2019-04-04T23:13:03.940Z,4.31
2019-04-04T23:15:03.950Z,4.25
2019-04-04T23:17:03.878Z,4.25
2019-04-04T23:17:20.877Z,4.25
2019-04-04T23:19:03.939Z,4.19
2019-04-04T23:21:03.833Z,4.19
2019-04-04T23:23:03.919Z,4.19
2019-04-04T23:25:03.867Z,4.19
2019-04-04T23:27:03.923Z,4.13
2019-04-04T23:29:03.851Z,4.19
2019-04-04T23:31:03.894Z,4.19